Time;durP1;ratioP1;P1;durP2;ratioP2;P2;SDS_P1;SDS_P2;PMS_P1;PMS_P2;Temp;Humidity;BMP_temperature;BMP_pressure;BME280_temperature;BME280_humidity;BME280_pressure;Samples;Min_cycle;Max_cycle;Signal;HPM_P1;HPM_P2
2023/07/12 06:03:57;;;;;;;6.90;1.85;;;26.20;48.80;;;;;;4297986;26;20053;-70
2023/07/12 06:06:24;;;;;;;5.55;2.35;;;26.30;49.20;;;;;;4976062;28;20038;-71
2023/07/12 06:08:50;;;;;;;5.60;2.03;;;26.30;49.10;;;;;;4993668;28;20026;-70
2023/07/12 06:11:16;;;;;;;5.80;1.85;;;26.30;49.20;;;;;;4994281;28;20049;-71
2023/07/12 06:13:42;;;;;;;5.57;1.55;;;26.30;49.10;;;;;;4999361;28;20094;-73
2023/07/12 06:16:08;;;;;;;6.82;1.70;;;26.30;49.20;;;;;;4993708;28;20137;-72
2023/07/12 06:18:34;;;;;;;8.93;2.33;;;26.30;49.30;;;;;;4993392;28;20029;-75
2023/07/12 06:21:02;;;;;;;7.10;2.22;;;26.20;49.70;;;;;;4993558;28;20026;-74
2023/07/12 06:23:29;;;;;;;5.70;1.55;;;26.20;49.60;;;;;;4993668;28;20362;-73
2023/07/12 06:25:59;;;;;;;8.70;2.17;;;26.20;49.70;;;;;;4975818;28;20098;-73
2023/07/12 06:28:25;;;;;;;5.72;2.22;;;26.20;49.80;;;;;;4993191;28;20026;-74
2023/07/12 06:30:52;;;;;;;9.63;2.10;;;26.00;68.60;;;;;;4993213;28;20133;-73
2023/07/12 06:33:19;;;;;;;7.40;1.83;;;26.20;49.70;;;;;;4993201;28;20030;-73
2023/07/12 06:35:45;;;;;;;6.93;2.17;;;26.20;49.60;;;;;;4992891;28;20037;-73
2023/07/12 06:38:12;;;;;;;7.47;2.40;;;26.10;49.70;;;;;;4992892;28;20101;-72
2023/07/12 06:40:39;;;;;;;6.45;1.90;;;26.20;49.80;;;;;;4993099;28;20049;-71
2023/07/12 06:43:05;;;;;;;9.13;2.20;;;26.20;49.60;;;;;;4993036;28;20081;-71
2023/07/12 06:45:31;;;;;;;8.45;2.15;;;26.10;49.50;;;;;;4993107;28;20389;-73
2023/07/12 06:47:57;;;;;;;5.93;1.83;;;26.10;49.50;;;;;;4992833;28;20029;-71
2023/07/12 06:50:23;;;;;;;7.18;2.08;;;26.10;49.60;;;;;;4992898;28;20022;-72
2023/07/12 06:52:49;;;;;;;5.93;1.70;;;26.10;49.60;;;;;;4992929;28;20381;-72
2023/07/12 06:55:15;;;;;;;8.90;2.17;;;26.10;49.80;;;;;;4992963;28;20109;-73
2023/07/12 06:57:42;;;;;;;6.50;2.00;;;26.10;49.70;;;;;;4992683;28;20457;-72
2023/07/12 07:00:09;;;;;;;4.75;1.60;;;26.10;50.00;;;;;;4991465;28;20034;-73
2023/07/12 07:02:35;;;;;;;7.93;1.90;;;26.10;49.70;;;;;;5004336;28;20049;-73
2023/07/12 07:05:01;;;;;;;9.57;1.75;;;26.00;49.80;;;;;;5012155;28;20041;-73
2023/07/12 07:07:28;;;;;;;5.75;2.08;;;26.10;49.80;;;;;;5012180;28;20401;-74
2023/07/12 07:09:54;;;;;;;7.38;1.92;;;26.00;49.70;;;;;;5011902;28;20033;-74
2023/07/12 07:12:20;;;;;;;7.25;1.83;;;26.00;49.90;;;;;;5011973;28;20083;-74
2023/07/12 07:14:46;;;;;;;7.07;2.35;;;26.00;50.00;;;;;;5012034;28;20029;-76
2023/07/12 07:17:13;;;;;;;5.38;1.60;;;;;;;;;;5012439;28;20092;-77
2023/07/12 07:19:39;;;;;;;7.10;1.95;;;26.00;49.40;;;;;;5012010;28;20022;-75
2023/07/12 07:22:05;;;;;;;7.57;2.22;;;26.00;50.00;;;;;;5011730;28;20026;-73
2023/07/12 07:24:32;;;;;;;7.90;2.13;;;26.10;50.00;;;;;;5012002;28;20440;-72
2023/07/12 07:26:58;;;;;;;7.55;2.00;;;26.10;49.90;;;;;;5011574;28;20030;-73
2023/07/12 07:29:23;;;;;;;7.82;1.73;;;26.10;50.00;;;;;;5011819;28;20040;-72
2023/07/12 07:31:49;;;;;;;5.70;1.60;;;26.10;49.70;;;;;;5011689;28;20021;-73
2023/07/12 07:34:15;;;;;;;8.35;1.92;;;26.00;50.00;;;;;;5011815;28;20036;-73
2023/07/12 07:36:41;;;;;;;9.27;1.92;;;26.10;50.00;;;;;;5011777;28;20058;-72
2023/07/12 07:39:07;;;;;;;6.88;1.83;;;26.10;50.00;;;;;;5011755;28;20032;-72
2023/07/12 07:41:32;;;;;;;6.00;2.28;;;25.90;67.90;;;;;;5011251;28;20109;-73
2023/07/12 07:43:58;;;;;;;8.05;2.38;;;26.00;49.90;;;;;;5011667;28;20041;-73
2023/07/12 07:46:24;;;;;;;11.25;2.08;;;26.00;50.00;;;;;;5011451;28;20097;-72
2023/07/12 07:48:50;;;;;;;6.22;1.75;;;26.00;49.60;;;;;;5011768;28;20117;-72
2023/07/12 07:51:16;;;;;;;6.20;2.03;;;26.00;49.60;;;;;;5011391;28;20030;-72
2023/07/12 07:53:42;;;;;;;5.15;1.55;;;26.00;49.70;;;;;;5011524;28;20049;-72
2023/07/12 07:56:08;;;;;;;8.45;1.75;;;26.00;50.10;;;;;;5011576;28;20505;-71
2023/07/12 07:58:34;;;;;;;12.23;2.17;;;26.00;50.10;;;;;;5011467;28;20091;-70
2023/07/12 08:01:01;;;;;;;6.30;1.67;;;26.00;50.00;;;;;;5011426;28;20026;-71
2023/07/12 08:03:27;;;;;;;7.38;1.63;;;26.10;50.00;;;;;;5010955;28;20173;-71
2023/07/12 08:05:59;;;;;;;5.85;2.33;;;26.10;50.10;;;;;;5011227;28;20037;-71
2023/07/12 08:08:25;;;;;;;6.93;1.88;;;26.00;49.70;;;;;;5011181;28;20104;-70
2023/07/12 08:10:51;;;;;;;9.77;2.25;;;26.00;49.90;;;;;;5015039;28;20059;-71
2023/07/12 08:13:17;;;;;;;8.93;2.20;;;26.00;50.20;;;;;;5011202;28;20539;-72
2023/07/12 08:15:44;;;;;;;6.10;1.80;;;25.90;50.10;;;;;;5011253;28;20073;-72
2023/07/12 08:18:13;;;;;;;8.00;2.10;;;26.00;50.30;;;;;;5011632;28;20096;-73
2023/07/12 08:20:40;;;;;;;4.47;1.60;;;26.00;50.40;;;;;;5011249;28;20461;-73
2023/07/12 08:23:08;;;;;;;8.75;2.20;;;26.00;50.20;;;;;;5011231;28;20099;-72
2023/07/12 08:25:34;;;;;;;9.73;2.38;;;26.00;50.30;;;;;;5011316;28;20092;-73
2023/07/12 08:28:00;;;;;;;6.70;2.10;;;26.10;50.30;;;;;;5011333;28;20022;-72
2023/07/12 08:30:25;;;;;;;5.80;1.63;;;25.80;68.10;;;;;;5011108;28;20507;-72
2023/07/12 08:32:51;;;;;;;8.15;2.47;;;26.10;50.40;;;;;;5011074;28;20088;-74
2023/07/12 08:35:18;;;;;;;7.80;2.22;;;26.10;50.40;;;;;;5011104;28;20018;-73
2023/07/12 08:37:44;;;;;;;7.15;1.73;;;26.20;51.20;;;;;;5011322;28;20065;-73
2023/07/12 08:40:14;;;;;;;9.48;2.42;;;26.20;50.50;;;;;;5011130;28;20473;-74
2023/07/12 08:42:42;;;;;;;6.15;1.70;;;26.20;50.40;;;;;;5011208;28;20037;-74
2023/07/12 08:45:29;;;;;;;7.78;2.42;;;26.20;50.30;;;;;;5011135;28;20037;-73
2023/07/12 08:48:01;;;;;;;4.47;2.15;;;26.20;50.30;;;;;;5010855;28;20435;-73
2023/07/12 08:50:41;;;;;;;8.48;1.70;;;26.20;50.30;;;;;;5011262;28;20394;-73
2023/07/12 08:53:15;;;;;;;5.45;1.70;;;26.20;50.30;;;;;;5012123;28;20033;-73
2023/07/12 08:55:41;;;;;;;5.55;1.88;;;26.30;50.20;;;;;;5014305;28;20084;-74
2023/07/12 08:58:24;;;;;;;9.52;2.33;;;26.30;50.20;;;;;;5014515;28;20033;-74
2023/07/12 09:01:00;;;;;;;9.88;2.35;;;26.30;50.30;;;;;;5014640;28;20392;-73
2023/07/12 09:03:26;;;;;;;6.60;1.75;;;26.30;50.20;;;;;;5014232;28;20061;-73
2023/07/12 09:05:52;;;;;;;6.22;1.77;;;26.40;50.40;;;;;;5014424;28;20103;-73
2023/07/12 09:08:25;;;;;;;6.95;1.85;;;26.40;50.20;;;;;;5014232;28;20025;-73
2023/07/12 09:10:56;;;;;;;5.80;2.00;;;26.40;50.20;;;;;;5014352;28;20481;-75
2023/07/12 09:13:31;;;;;;;7.25;2.00;;;26.40;50.20;;;;;;5014299;28;20033;-74
2023/07/12 09:15:56;;;;;;;6.72;1.38;;;26.40;49.90;;;;;;5014225;28;20105;-73
2023/07/12 09:18:34;;;;;;;7.13;1.48;;;26.40;50.00;;;;;;5014205;28;20022;-73
2023/07/12 09:21:12;;;;;;;7.85;1.73;;;26.40;49.90;;;;;;5014481;28;20026;-76
2023/07/12 09:23:40;;;;;;;5.13;1.77;;;26.40;50.30;;;;;;5014013;28;20492;-72
2023/07/12 09:26:17;;;;;;;9.98;2.13;;;26.50;50.00;;;;;;5013838;28;20044;-72
2023/07/12 09:28:43;;;;;;;6.82;1.42;;;26.50;49.90;;;;;;5014229;28;20030;-72
2023/07/12 09:31:30;;;;;;;4.90;1.60;;;26.50;49.90;;;;;;5014310;28;20385;-71
2023/07/12 09:34:01;;;;;;;6.65;1.52;;;26.60;50.60;;;;;;5013677;28;20105;-72
2023/07/12 09:36:27;;;;;;;6.95;1.83;;;26.60;49.70;;;;;;5014210;28;20379;-72
2023/07/12 09:39:00;;;;;;;5.03;1.63;;;26.70;49.50;;;;;;5014038;28;20033;-72
2023/07/12 09:41:27;;;;;;;6.90;1.60;;;26.70;49.20;;;;;;5014132;28;20040;-72
2023/07/12 09:43:56;;;;;;;7.10;1.48;;;26.40;65.40;;;;;;5013974;28;20449;-73
2023/07/12 09:46:36;;;;;;;5.63;1.48;;;26.80;49.10;;;;;;5013839;28;20065;-72
2023/07/12 09:49:06;;;;;;;5.03;1.50;;;26.80;48.90;;;;;;5013753;28;20551;-73
2023/07/12 09:51:38;;;;;;;4.25;1.27;;;26.90;48.70;;;;;;5013521;28;20145;-73
2023/07/12 09:54:48;;;;;;;3.90;1.20;;;26.90;48.40;;;;;;5013842;28;20037;-76
2023/07/12 09:57:36;;;;;;;3.55;1.20;;;26.90;48.00;;;;;;4998246;28;20096;-72
2023/07/12 10:00:14;;;;;;;5.05;1.10;;;26.90;47.80;;;;;;5013395;28;20045;-72
2023/07/12 10:02:47;;;;;;;5.03;1.48;;;26.90;47.50;;;;;;5013398;28;20056;-72
2023/07/12 10:05:20;;;;;;;2.90;1.17;;;27.00;47.60;;;;;;5013076;28;20037;-72
2023/07/12 10:08:12;;;;;;;7.63;1.50;;;27.00;47.80;;;;;;5013329;28;20037;-72
2023/07/12 10:11:10;;;;;;;8.88;1.27;;;27.10;47.40;;;;;;5013620;28;20064;-72
2023/07/12 10:13:41;;;;;;;4.40;1.30;;;27.10;47.20;;;;;;5013007;28;20213;-73
2023/07/12 10:16:26;;;;;;;3.50;1.17;;;27.10;47.30;;;;;;5013033;28;20026;-72
2023/07/12 10:18:53;;;;;;;2.47;1.15;;;27.20;46.70;;;;;;5013249;28;20465;-73
2023/07/12 10:21:24;;;;;;;2.55;0.75;;;27.20;47.20;;;;;;5012951;28;20022;-72
2023/07/12 10:24:01;;;;;;;4.65;1.30;;;27.30;47.50;;;;;;5013258;28;20365;-72
2023/07/12 10:26:27;;;;;;;2.45;0.98;;;27.20;47.70;;;;;;5013712;28;20088;-72
2023/07/12 10:29:09;;;;;;;4.85;1.02;;;27.30;47.70;;;;;;5012823;28;20029;-72
2023/07/12 10:32:20;;;;;;;2.53;1.00;;;27.30;47.60;;;;;;5012827;28;20078;-73
2023/07/12 10:34:55;;;;;;;4.65;1.15;;;27.40;47.60;;;;;;4952226;29;20035;-71
2023/07/12 10:37:30;;;;;;;6.57;1.05;;;27.40;47.60;;;;;;4952083;29;20390;-72
2023/07/12 10:39:58;;;;;;;2.33;1.00;;;27.50;47.30;;;;;;4991093;28;20064;-74
2023/07/12 10:42:30;;;;;;;2.45;1.10;;;27.60;47.50;;;;;;5012624;28;20485;-72
2023/07/12 10:44:59;;;;;;;1.83;0.82;;;27.60;47.20;;;;;;5012441;28;20472;-72
2023/07/12 10:47:34;;;;;;;3.25;1.23;;;27.70;47.50;;;;;;5012500;28;20029;-72
2023/07/12 10:50:04;;;;;;;5.70;1.60;;;27.70;46.40;;;;;;5012519;28;20025;-72
2023/07/12 10:52:33;;;;;;;4.55;1.58;;;27.70;46.60;;;;;;5012783;28;20049;-72
2023/07/12 10:55:02;;;;;;;6.20;1.58;;;27.80;46.50;;;;;;5013292;28;20093;-72
2023/07/12 10:57:38;;;;;;;4.40;1.17;;;27.80;46.50;;;;;;5012658;28;20600;-72
2023/07/12 11:00:20;;;;;;;4.10;1.30;;;27.90;46.50;;;;;;5012652;28;20018;-72
2023/07/12 11:02:58;;;;;;;2.33;0.90;;;28.00;46.20;;;;;;5012301;28;20053;-72
2023/07/12 11:05:44;;;;;;;5.55;1.10;;;28.00;46.00;;;;;;5012478;28;20030;-73
2023/07/12 11:08:32;;;;;;;3.55;0.90;;;28.10;46.10;;;;;;5012190;28;20022;-74
2023/07/12 11:11:21;;;;;;;2.80;1.10;;;28.10;45.70;;;;;;5012375;28;20022;-73
2023/07/12 11:13:56;;;;;;;6.63;1.13;;;28.00;44.60;;;;;;5011979;28;20555;-74
2023/07/12 11:16:25;;;;;;;4.63;1.20;;;28.00;45.10;;;;;;5011282;28;20428;-73
2023/07/12 11:18:54;;;;;;;3.90;1.25;;;28.00;44.80;;;;;;5011992;28;20050;-73
2023/07/12 11:21:45;;;;;;;3.88;1.40;;;28.00;44.80;;;;;;5011793;28;20637;-74
2023/07/12 11:24:27;;;;;;;2.47;0.70;;;28.10;45.20;;;;;;5012723;28;20026;-74
2023/07/12 11:27:00;;;;;;;2.20;0.93;;;28.10;44.70;;;;;;5012192;28;20409;-73
2023/07/12 11:29:30;;;;;;;2.42;0.75;;;28.20;45.10;;;;;;5012169;28;20370;-74
2023/07/12 11:32:33;;;;;;;2.63;0.90;;;28.20;45.20;;;;;;5012153;28;20432;-74
2023/07/12 11:35:09;;;;;;;2.60;0.95;;;28.30;45.50;;;;;;5011921;28;20412;-74
2023/07/12 11:37:43;;;;;;;3.40;1.38;;;28.30;45.30;;;;;;5011792;28;20068;-74
2023/07/12 11:40:35;;;;;;;3.40;1.10;;;28.30;45.50;;;;;;5011620;28;20037;-74
2023/07/12 11:43:22;;;;;;;2.78;0.80;;;28.30;45.60;;;;;;5011676;28;20057;-74
2023/07/12 11:45:53;;;;;;;4.40;0.93;;;28.30;45.20;;;;;;5011700;28;20127;-74
2023/07/12 11:48:20;;;;;;;2.45;0.70;;;28.40;45.40;;;;;;5011689;28;20162;-74
2023/07/12 11:50:49;;;;;;;3.08;0.82;;;28.40;44.50;;;;;;5011604;28;20043;-73
2023/07/12 11:53:16;;;;;;;2.25;1.02;;;28.40;45.10;;;;;;5011618;28;20068;-74
2023/07/12 11:55:41;;;;;;;3.40;0.68;;;28.40;44.90;;;;;;5011456;28;20057;-73
2023/07/12 11:58:16;;;;;;;3.55;0.73;;;28.50;43.60;;;;;;5011777;28;20038;-74
2023/07/12 12:00:43;;;;;;;2.38;0.77;;;28.50;43.60;;;;;;5011522;28;20038;-73
2023/07/12 12:03:13;;;;;;;1.77;0.50;;;28.40;58.80;;;;;;5011168;28;20042;-72
2023/07/12 12:05:40;;;;;;;1.77;0.65;;;28.40;43.10;;;;;;5011246;28;20038;-73
2023/07/12 12:08:17;;;;;;;2.22;0.60;;;28.50;43.90;;;;;;5011749;28;20018;-73
2023/07/12 12:10:45;;;;;;;3.25;0.57;;;28.60;59.80;;;;;;5012146;28;20030;-74
2023/07/12 12:13:20;;;;;;;1.40;0.70;;;28.60;43.70;;;;;;5011392;28;20036;-73
2023/07/12 12:15:49;;;;;;;2.55;0.77;;;28.60;43.00;;;;;;5011170;28;20052;-74
2023/07/12 12:18:21;;;;;;;2.47;0.97;;;28.60;42.50;;;;;;5011552;28;20084;-73
2023/07/12 12:20:56;;;;;;;3.22;0.90;;;28.60;42.60;;;;;;5011150;28;20022;-75
2023/07/12 12:23:37;;;;;;;2.28;0.60;;;28.60;42.00;;;;;;5011242;28;20148;-74
2023/07/12 12:26:23;;;;;;;3.17;0.68;;;28.70;42.70;;;;;;5011094;28;20515;-75
2023/07/12 12:29:04;;;;;;;1.60;0.68;;;28.80;43.40;;;;;;5014738;28;20468;-75
2023/07/12 12:31:32;;;;;;;4.55;0.82;;;28.90;43.40;;;;;;5015129;28;20053;-74
2023/07/12 12:34:02;;;;;;;1.77;0.70;;;29.00;43.40;;;;;;5015313;28;20049;-73
2023/07/12 12:36:29;;;;;;;6.68;0.77;;;28.90;43.40;;;;;;5015265;28;20450;-75
2023/07/12 12:38:58;;;;;;;2.50;0.80;;;28.80;42.20;;;;;;5015591;28;20029;-76
2023/07/12 12:41:30;;;;;;;2.65;0.60;;;28.70;42.60;;;;;;5015027;28;20030;-77
2023/07/12 12:44:08;;;;;;;2.35;0.85;;;28.80;44.00;;;;;;5015208;28;20030;-76
2023/07/12 12:46:33;;;;;;;2.40;0.88;;;28.90;44.10;;;;;;5015016;28;20042;-77
2023/07/12 12:48:59;;;;;;;1.05;0.50;;;29.00;44.00;;;;;;5015246;28;20034;-77
2023/07/12 12:51:25;;;;;;;1.13;0.40;;;29.10;43.90;;;;;;5015696;28;20391;-77
2023/07/12 12:53:51;;;;;;;2.08;0.70;;;29.10;44.10;;;;;;5015099;28;20037;-76
2023/07/12 12:56:17;;;;;;;2.58;0.65;;;29.10;44.30;;;;;;5015229;28;20098;-77
2023/07/12 12:58:43;;;;;;;3.67;0.55;;;29.20;44.10;;;;;;5015042;28;20026;-77
2023/07/12 13:01:11;;;;;;;2.03;0.40;;;29.20;59.30;;;;;;5014983;28;20036;-77
2023/07/12 13:03:37;;;;;;;1.52;0.32;;;29.20;44.00;;;;;;5015087;28;20060;-77
2023/07/12 13:06:04;;;;;;;2.58;0.80;;;29.50;59.90;;;;;;5015469;28;20113;-77
2023/07/12 13:08:30;;;;;;;2.58;0.45;;;29.30;44.60;;;;;;5015032;28;20495;-77
2023/07/12 13:10:55;;;;;;;1.45;0.40;;;29.30;44.30;;;;;;5014923;28;20101;-77
2023/07/12 13:13:21;;;;;;;1.45;0.50;;;29.30;44.20;;;;;;5014634;28;20385;-77
2023/07/12 13:15:48;;;;;;;0.93;0.38;;;29.30;44.20;;;;;;5014701;28;20033;-77
2023/07/12 13:18:15;;;;;;;1.95;0.50;;;29.30;44.30;;;;;;5014598;28;20057;-76
2023/07/12 13:20:41;;;;;;;2.00;0.50;;;29.20;44.40;;;;;;5014255;28;20037;-77
2023/07/12 13:23:09;;;;;;;1.95;0.55;;;29.20;43.90;;;;;;5014496;28;20019;-77
2023/07/12 13:25:39;;;;;;;1.88;0.50;;;29.10;44.40;;;;;;5014396;28;20175;-77
2023/07/12 13:28:06;;;;;;;3.30;0.50;;;29.10;44.10;;;;;;5014370;28;20488;-77
2023/07/12 13:30:37;;;;;;;1.70;0.65;;;29.20;44.10;;;;;;4981109;28;20156;-77
2023/07/12 13:33:10;;;;;;;1.65;0.40;;;29.20;44.00;;;;;;4982042;28;20596;-77
2023/07/12 13:35:36;;;;;;;1.05;0.38;;;29.30;44.00;;;;;;4980982;28;20034;-77
2023/07/12 13:38:02;;;;;;;1.42;0.60;;;29.20;44.00;;;;;;4979871;28;20030;-77
2023/07/12 13:40:29;;;;;;;1.70;0.60;;;29.20;44.20;;;;;;4995874;28;20042;-77
2023/07/12 13:42:55;;;;;;;1.05;0.47;;;29.20;44.30;;;;;;4980199;28;20034;-77
2023/07/12 13:45:31;;;;;;;0.98;0.35;;;29.10;44.40;;;;;;4996553;28;20045;-76
2023/07/12 13:47:57;;;;;;;1.15;0.32;;;29.00;44.60;;;;;;5006243;28;20042;-77
2023/07/12 13:50:24;;;;;;;2.65;0.63;;;29.00;44.70;;;;;;4980730;28;20022;-77
2023/07/12 13:52:50;;;;;;;1.40;0.40;;;28.90;44.90;;;;;;4980787;28;20442;-77
2023/07/12 13:55:18;;;;;;;1.65;0.52;;;28.80;44.80;;;;;;4980810;28;20037;-77
2023/07/12 13:57:46;;;;;;;1.48;0.60;;;28.90;44.90;;;;;;4981000;28;20030;-76
2023/07/12 14:00:19;;;;;;;0.88;0.38;;;28.80;44.90;;;;;;4980301;28;20034;-76
2023/07/12 14:02:49;;;;;;;1.05;0.38;;;28.80;44.90;;;;;;4975069;28;20054;-77
2023/07/12 14:05:15;;;;;;;2.58;0.60;;;28.80;44.90;;;;;;4976450;28;20045;-76
2023/07/12 14:07:42;;;;;;;1.05;0.40;;;;;;;;;;4976822;28;20029;-77
2023/07/12 14:10:13;;;;;;;2.65;0.52;;;28.80;44.20;;;;;;4992870;28;20038;-77
2023/07/12 14:12:40;;;;;;;2.17;0.60;;;28.80;44.80;;;;;;4976720;28;20129;-77
2023/07/12 14:15:12;;;;;;;2.25;0.63;;;28.80;44.80;;;;;;4976725;28;20101;-76
2023/07/12 14:17:39;;;;;;;1.20;0.40;;;;;;;;;;4994129;28;20105;-77
2023/07/12 14:20:05;;;;;;;0.95;0.55;;;28.90;44.20;;;;;;4993527;28;20531;-77
2023/07/12 14:22:32;;;;;;;1.67;0.45;;;29.00;44.50;;;;;;4993553;28;20018;-74
2023/07/12 14:24:58;;;;;;;1.20;0.50;;;29.10;44.70;;;;;;4993577;28;20097;-76
2023/07/12 14:27:27;;;;;;;3.20;0.80;;;29.00;43.60;;;;;;4993585;28;20464;-74
2023/07/12 14:29:55;;;;;;;4.10;0.82;;;29.00;43.30;;;;;;4993456;28;20412;-74
2023/07/12 14:32:26;;;;;;;3.20;0.80;;;29.00;42.30;;;;;;4993551;28;20158;-74
2023/07/12 14:34:53;;;;;;;2.80;0.82;;;;;;;;;;4992908;28;20034;-77
2023/07/12 14:37:21;;;;;;;1.60;0.60;;;29.00;41.50;;;;;;4993019;28;20026;-73
2023/07/12 14:39:47;;;;;;;4.60;0.77;;;29.30;42.20;;;;;;4992917;28;20022;-74
2023/07/12 14:42:16;;;;;;;3.58;0.90;;;29.20;40.40;;;;;;4992682;28;20059;-74
2023/07/12 14:44:42;;;;;;;2.50;0.77;;;29.20;41.00;;;;;;4992907;28;20385;-74
2023/07/12 14:47:14;;;;;;;1.48;0.57;;;29.30;41.20;;;;;;4992809;28;20030;-73
2023/07/12 14:49:40;;;;;;;2.17;0.65;;;29.40;40.10;;;;;;4992842;28;20316;-75
2023/07/12 14:52:18;;;;;;;4.82;0.98;;;29.30;39.30;;;;;;4992420;28;20088;-73
2023/07/12 14:54:45;;;;;;;5.32;0.57;;;;;;;;;;4992467;28;20080;-73
2023/07/12 14:57:14;;;;;;;1.52;0.45;;;29.30;38.60;;;;;;4992246;28;20130;-73
2023/07/12 14:59:42;;;;;;;3.58;0.90;;;29.20;39.20;;;;;;4992456;28;20025;-73
2023/07/12 15:02:26;;;;;;;1.80;0.60;;;29.30;39.00;;;;;;4994036;28;20027;-73
2023/07/12 15:04:57;;;;;;;1.80;0.68;;;29.40;38.80;;;;;;5011986;28;20034;-73
2023/07/12 15:07:30;;;;;;;1.50;0.45;;;29.40;38.30;;;;;;5011875;28;20137;-73
2023/07/12 15:09:58;;;;;;;3.92;0.60;;;29.40;38.60;;;;;;5011971;28;20033;-73
2023/07/12 15:12:34;;;;;;;1.58;0.45;;;29.40;37.80;;;;;;5012193;28;20022;-73
2023/07/12 15:15:18;;;;;;;2.70;0.55;;;29.40;37.80;;;;;;5011896;28;20096;-74
2023/07/12 15:18:00;;;;;;;3.75;0.60;;;29.30;37.50;;;;;;5011908;28;20041;-73
2023/07/12 15:20:27;;;;;;;2.92;0.70;;;29.20;37.80;;;;;;5011783;28;20026;-73
2023/07/12 15:22:53;;;;;;;3.00;0.80;;;29.20;37.50;;;;;;4978018;28;20064;-73
2023/07/12 15:25:25;;;;;;;3.33;0.57;;;29.20;37.90;;;;;;4993932;28;20497;-73
2023/07/12 15:27:51;;;;;;;3.22;0.70;;;29.20;37.60;;;;;;4978130;28;20034;-72
2023/07/12 15:30:26;;;;;;;1.38;0.43;;;29.20;37.80;;;;;;4961884;28;20038;-72
2023/07/12 15:32:53;;;;;;;2.72;0.70;;;29.20;37.70;;;;;;5012167;28;20082;-72
2023/07/12 15:35:33;;;;;;;1.70;0.55;;;29.10;38.00;;;;;;4994130;28;20092;-74
2023/07/12 15:38:03;;;;;;;5.35;0.80;;;29.10;38.50;;;;;;5011602;28;20080;-72
2023/07/12 15:40:53;;;;;;;2.53;0.85;;;29.10;39.00;;;;;;5011775;28;20097;-74
2023/07/12 15:43:24;;;;;;;3.70;0.63;;;29.00;39.60;;;;;;5011486;28;20425;-75
2023/07/12 15:45:50;;;;;;;2.30;0.70;;;29.00;40.10;;;;;;5011464;28;20370;-76
2023/07/12 15:48:19;;;;;;;2.00;0.60;;;29.00;40.90;;;;;;5011383;28;20033;-73
2023/07/12 15:50:47;;;;;;;3.38;0.57;;;29.10;40.30;;;;;;5011512;28;20660;-72
2023/07/12 15:53:15;;;;;;;1.42;0.60;;;29.10;40.60;;;;;;5011423;28;20033;-72
2023/07/12 15:55:43;;;;;;;3.30;0.80;;;29.10;40.60;;;;;;5011557;28;20038;-73
2023/07/12 15:58:30;;;;;;;3.60;1.02;;;29.10;39.80;;;;;;5011582;28;20080;-73
2023/07/12 16:01:00;;;;;;;1.50;0.70;;;29.10;39.10;;;;;;5011222;28;20026;-73
2023/07/12 16:03:29;;;;;;;2.88;0.93;;;29.10;39.20;;;;;;5014236;28;20049;-72
2023/07/12 16:05:57;;;;;;;2.67;0.98;;;29.10;39.30;;;;;;5014962;28;20037;-73
2023/07/12 16:08:25;;;;;;;5.63;1.02;;;29.20;39.10;;;;;;5014988;28;20018;-73
2023/07/12 16:10:53;;;;;;;5.53;0.80;;;29.20;39.20;;;;;;5014888;28;20068;-73
2023/07/12 16:13:26;;;;;;;1.55;0.75;;;29.20;39.50;;;;;;5015320;28;20029;-72
2023/07/12 16:15:53;;;;;;;1.67;0.77;;;29.20;39.10;;;;;;5014866;28;20029;-73
2023/07/12 16:18:28;;;;;;;2.88;0.95;;;29.20;38.90;;;;;;5014882;28;20026;-72
2023/07/12 16:20:57;;;;;;;3.00;0.95;;;29.10;38.90;;;;;;5015243;28;20022;-72
2023/07/12 16:23:37;;;;;;;4.53;0.88;;;29.00;38.90;;;;;;5015020;28;20029;-72
2023/07/12 16:26:05;;;;;;;2.28;0.73;;;29.00;38.80;;;;;;5015184;28;20052;-72
2023/07/12 16:28:32;;;;;;;2.92;0.70;;;29.00;39.30;;;;;;5014709;28;20524;-72
2023/07/12 16:30:59;;;;;;;5.40;0.90;;;28.90;40.10;;;;;;5014610;28;20048;-73
2023/07/12 16:33:29;;;;;;;5.40;0.98;;;28.80;40.50;;;;;;5014677;28;20028;-72
2023/07/12 16:35:56;;;;;;;4.20;1.08;;;28.80;40.80;;;;;;5014633;28;20053;-74
2023/07/12 16:38:25;;;;;;;4.47;1.17;;;28.70;40.80;;;;;;5014586;28;20025;-73
2023/07/12 16:41:00;;;;;;;3.65;1.30;;;28.70;41.20;;;;;;5014602;28;20513;-73
2023/07/12 16:43:27;;;;;;;4.32;1.23;;;28.70;40.90;;;;;;5014664;28;20195;-74
2023/07/12 16:45:53;;;;;;;3.60;1.33;;;;;;;;;;5014582;28;20456;-74
2023/07/12 16:48:19;;;;;;;4.13;1.70;;;28.70;40.60;;;;;;5014762;28;20026;-74
2023/07/12 16:50:48;;;;;;;9.32;1.63;;;28.70;41.30;;;;;;5014623;28;20030;-74
2023/07/12 16:53:19;;;;;;;10.02;1.33;;;28.70;41.30;;;;;;5014617;28;20076;-73
2023/07/12 16:55:47;;;;;;;10.45;1.58;;;28.70;41.50;;;;;;4996858;28;20038;-73
2023/07/12 16:58:22;;;;;;;8.07;1.70;;;28.70;41.30;;;;;;5014326;28;20018;-74
2023/07/12 17:00:54;;;;;;;6.43;1.52;;;28.60;41.30;;;;;;5014216;28;20114;-74
2023/07/12 17:03:22;;;;;;;8.90;1.70;;;28.60;41.60;;;;;;5014143;28;20452;-74
2023/07/12 17:05:48;;;;;;;7.57;2.00;;;28.50;41.70;;;;;;5013836;28;20077;-74
2023/07/12 17:08:18;;;;;;;8.90;1.80;;;28.50;41.40;;;;;;5014177;28;20496;-74
2023/07/12 17:10:45;;;;;;;6.40;1.80;;;28.40;40.30;;;;;;5014053;28;20485;-75
2023/07/12 17:13:16;;;;;;;2.60;1.00;;;28.40;40.70;;;;;;5013295;28;20042;-75
2023/07/12 17:15:44;;;;;;;4.05;1.15;;;28.40;41.80;;;;;;5013820;28;20025;-74
2023/07/12 17:18:16;;;;;;;3.20;0.88;;;28.40;41.90;;;;;;5013799;28;20026;-74
2023/07/12 17:20:48;;;;;;;4.63;1.30;;;28.40;41.50;;;;;;5014162;28;20022;-74
2023/07/12 17:23:19;;;;;;;6.75;1.17;;;28.50;41.30;;;;;;5014016;28;20404;-73
2023/07/12 17:25:48;;;;;;;7.43;1.95;;;28.40;41.20;;;;;;5013428;28;20531;-73
2023/07/12 17:28:20;;;;;;;6.53;1.50;;;28.30;41.20;;;;;;5013682;28;20018;-74
2023/07/12 17:30:47;;;;;;;7.10;1.90;;;28.30;40.80;;;;;;5013246;28;20049;-74
2023/07/12 17:33:18;;;;;;;5.30;1.48;;;28.30;41.20;;;;;;5013636;28;20033;-75
2023/07/12 17:35:45;;;;;;;7.65;1.50;;;28.20;40.70;;;;;;5013265;28;20447;-74
2023/07/12 17:38:13;;;;;;;3.13;0.95;;;28.20;41.80;;;;;;5013782;28;20326;-76
2023/07/12 17:40:40;;;;;;;3.40;1.08;;;28.10;57.40;;;;;;5013452;28;20029;-75
2023/07/12 17:43:16;;;;;;;5.43;1.40;;;28.10;41.80;;;;;;5013695;28;20053;-75
2023/07/12 17:45:43;;;;;;;6.32;1.50;;;28.10;41.30;;;;;;5013549;28;20076;-75
2023/07/12 17:48:11;;;;;;;3.35;0.98;;;28.10;41.60;;;;;;5015847;28;20545;-76
2023/07/12 17:50:40;;;;;;;4.40;1.20;;;28.00;41.40;;;;;;5013711;28;20125;-75
2023/07/12 17:53:14;;;;;;;4.15;1.30;;;28.00;41.40;;;;;;5013452;28;20024;-76
2023/07/12 17:55:40;;;;;;;6.25;1.25;;;28.00;42.00;;;;;;4997159;28;20037;-75
2023/07/12 17:58:06;;;;;;;3.65;1.25;;;27.80;57.70;;;;;;5013192;28;20118;-75
2023/07/12 18:00:32;;;;;;;3.70;0.93;;;27.90;41.70;;;;;;5013570;28;20147;-75
2023/07/12 18:02:59;;;;;;;2.92;0.80;;;27.90;41.50;;;;;;5013176;28;20038;-76
2023/07/12 18:05:28;;;;;;;3.97;1.05;;;27.90;41.30;;;;;;5013417;28;20484;-75
2023/07/12 18:07:55;;;;;;;4.20;0.95;;;27.80;41.60;;;;;;5013177;28;20152;-75
2023/07/12 18:10:22;;;;;;;3.95;1.13;;;;;;;;;;5013350;28;20085;-75
2023/07/12 18:12:49;;;;;;;3.92;1.20;;;27.80;40.70;;;;;;5013122;28;20037;-75
2023/07/12 18:15:22;;;;;;;4.50;1.17;;;27.70;41.60;;;;;;5012884;28;20025;-75
2023/07/12 18:17:49;;;;;;;4.90;1.08;;;27.70;41.50;;;;;;5013380;28;20032;-75
2023/07/12 18:20:15;;;;;;;4.60;1.17;;;27.70;41.70;;;;;;5013084;28;20026;-75
2023/07/12 18:22:41;;;;;;;1.90;0.80;;;27.70;41.60;;;;;;5012679;28;20037;-75
2023/07/12 18:25:16;;;;;;;2.60;0.85;;;27.70;41.70;;;;;;4979079;28;20171;-75
2023/07/12 18:27:42;;;;;;;3.38;1.15;;;27.60;41.60;;;;;;4995807;28;20045;-75
2023/07/12 18:30:11;;;;;;;3.28;0.77;;;27.60;41.50;;;;;;4979284;28;20383;-75
2023/07/12 18:32:37;;;;;;;3.13;0.95;;;27.60;41.50;;;;;;4979464;28;20034;-75
2023/07/12 18:35:05;;;;;;;4.63;1.30;;;27.00;41.10;;;;;;4979603;28;20026;-75
2023/07/12 18:37:31;;;;;;;4.32;1.23;;;27.50;41.30;;;;;;4995081;28;20053;-76
2023/07/12 18:39:58;;;;;;;3.08;1.10;;;27.50;41.20;;;;;;4979084;28;20026;-75
2023/07/12 18:42:29;;;;;;;3.72;1.20;;;27.50;41.20;;;;;;4978917;28;20527;-75
2023/07/12 18:44:56;;;;;;;3.28;0.90;;;27.50;41.20;;;;;;4979921;28;20450;-75
2023/07/12 18:47:23;;;;;;;4.90;1.10;;;27.50;41.30;;;;;;4979158;28;20041;-75
2023/07/12 18:49:52;;;;;;;3.08;0.90;;;27.40;41.20;;;;;;4979316;28;20049;-75
2023/07/12 18:52:24;;;;;;;4.45;0.93;;;27.30;40.60;;;;;;4978798;28;20116;-75
2023/07/12 18:54:50;;;;;;;3.17;0.90;;;27.30;41.30;;;;;;4979009;28;20112;-75
2023/07/12 18:57:18;;;;;;;3.78;0.90;;;27.30;41.10;;;;;;4995074;28;20517;-75
2023/07/12 18:59:48;;;;;;;3.05;0.90;;;27.30;41.20;;;;;;4978754;28;20033;-75
2023/07/12 19:02:22;;;;;;;3.03;1.20;;;27.20;41.20;;;;;;4994851;28;20037;-75
2023/07/12 19:04:49;;;;;;;4.43;1.05;;;27.20;41.30;;;;;;4979220;28;20091;-75
2023/07/12 19:07:28;;;;;;;2.05;0.63;;;27.10;41.20;;;;;;4978798;28;20403;-77